sensor_id;sensor_type;location;lat;lon;timestamp;P1;durP1;ratioP1;P2;durP2;ratioP2
32633;SDS011;19043;51.012;5.648;2022-09-06T00:02:20;7.63;;;3.40;;
32633;SDS011;19043;51.012;5.648;2022-09-06T00:04:45;13.45;;;3.95;;
32633;SDS011;19043;51.012;5.648;2022-09-06T00:07:12;6.13;;;4.43;;
32633;SDS011;19043;51.012;5.648;2022-09-06T00:09:37;7.20;;;3.95;;
32633;SDS011;19043;51.012;5.648;2022-09-06T00:12:02;6.75;;;4.00;;
32633;SDS011;19043;51.012;5.648;2022-09-06T00:14:28;7.13;;;4.30;;
32633;SDS011;19043;51.012;5.648;2022-09-06T00:16:53;6.13;;;4.20;;
32633;SDS011;19043;51.012;5.648;2022-09-06T00:19:19;8.15;;;4.57;;
32633;SDS011;19043;51.012;5.648;2022-09-06T00:21:44;6.30;;;4.22;;
32633;SDS011;19043;51.012;5.648;2022-09-06T00:24:09;8.43;;;4.63;;
32633;SDS011;19043;51.012;5.648;2022-09-06T00:26:35;6.22;;;4.63;;
32633;SDS011;19043;51.012;5.648;2022-09-06T00:29:00;5.50;;;4.32;;
32633;SDS011;19043;51.012;5.648;2022-09-06T00:31:25;10.13;;;4.85;;
32633;SDS011;19043;51.012;5.648;2022-09-06T00:33:51;5.82;;;4.75;;
32633;SDS011;19043;51.012;5.648;2022-09-06T00:36:17;7.00;;;4.65;;
32633;SDS011;19043;51.012;5.648;2022-09-06T00:38:43;6.65;;;4.88;;
32633;SDS011;19043;51.012;5.648;2022-09-06T00:41:10;6.93;;;4.95;;
32633;SDS011;19043;51.012;5.648;2022-09-06T00:43:37;7.35;;;5.47;;
32633;SDS011;19043;51.012;5.648;2022-09-06T00:46:04;9.57;;;6.18;;
32633;SDS011;19043;51.012;5.648;2022-09-06T00:48:31;7.60;;;5.40;;
32633;SDS011;19043;51.012;5.648;2022-09-06T00:50:58;8.50;;;5.20;;
32633;SDS011;19043;51.012;5.648;2022-09-06T00:53:25;13.85;;;5.13;;
32633;SDS011;19043;51.012;5.648;2022-09-06T00:55:51;6.47;;;4.55;;
32633;SDS011;19043;51.012;5.648;2022-09-06T00:58:16;7.85;;;5.32;;
32633;SDS011;19043;51.012;5.648;2022-09-06T01:00:42;8.68;;;5.55;;
32633;SDS011;19043;51.012;5.648;2022-09-06T01:03:09;8.35;;;5.65;;
32633;SDS011;19043;51.012;5.648;2022-09-06T01:05:41;8.95;;;5.28;;
32633;SDS011;19043;51.012;5.648;2022-09-06T01:08:29;12.38;;;5.55;;
32633;SDS011;19043;51.012;5.648;2022-09-06T01:30:06;10.93;;;5.13;;
32633;SDS011;19043;51.012;5.648;2022-09-06T01:35:28;7.15;;;5.45;;
32633;SDS011;19043;51.012;5.648;2022-09-06T01:37:59;7.60;;;6.30;;
32633;SDS011;19043;51.012;5.648;2022-09-06T01:40:25;9.93;;;7.82;;
32633;SDS011;19043;51.012;5.648;2022-09-06T01:42:52;11.52;;;8.30;;
32633;SDS011;19043;51.012;5.648;2022-09-06T01:45:18;8.27;;;7.22;;
32633;SDS011;19043;51.012;5.648;2022-09-06T01:55:54;11.38;;;6.80;;
32633;SDS011;19043;51.012;5.648;2022-09-06T01:58:29;7.20;;;5.85;;
32633;SDS011;19043;51.012;5.648;2022-09-06T02:06:36;13.38;;;6.75;;
32633;SDS011;19043;51.012;5.648;2022-09-06T02:09:05;9.52;;;7.28;;
32633;SDS011;19043;51.012;5.648;2022-09-06T02:11:35;8.65;;;7.15;;
32633;SDS011;19043;51.012;5.648;2022-09-06T02:14:06;9.73;;;7.43;;
32633;SDS011;19043;51.012;5.648;2022-09-06T02:16:35;8.07;;;6.25;;
32633;SDS011;19043;51.012;5.648;2022-09-06T02:19:14;8.32;;;6.78;;
32633;SDS011;19043;51.012;5.648;2022-09-06T02:21:44;9.82;;;7.32;;
32633;SDS011;19043;51.012;5.648;2022-09-06T02:24:11;8.77;;;7.28;;
32633;SDS011;19043;51.012;5.648;2022-09-06T02:26:47;8.10;;;6.57;;
32633;SDS011;19043;51.012;5.648;2022-09-06T02:29:13;10.48;;;7.53;;
32633;SDS011;19043;51.012;5.648;2022-09-06T02:34:50;7.57;;;6.70;;
32633;SDS011;19043;51.012;5.648;2022-09-06T02:37:16;9.27;;;6.40;;
32633;SDS011;19043;51.012;5.648;2022-09-06T02:39:42;13.82;;;7.55;;
32633;SDS011;19043;51.012;5.648;2022-09-06T02:42:08;8.40;;;6.97;;
32633;SDS011;19043;51.012;5.648;2022-09-06T02:44:34;9.57;;;7.65;;
32633;SDS011;19043;51.012;5.648;2022-09-06T02:46:59;10.65;;;9.57;;
32633;SDS011;19043;51.012;5.648;2022-09-06T02:49:26;21.75;;;9.10;;
32633;SDS011;19043;51.012;5.648;2022-09-06T02:51:52;9.57;;;8.57;;
32633;SDS011;19043;51.012;5.648;2022-09-06T02:54:17;10.30;;;9.00;;
32633;SDS011;19043;51.012;5.648;2022-09-06T02:56:42;17.83;;;9.98;;
32633;SDS011;19043;51.012;5.648;2022-09-06T02:59:08;11.90;;;9.20;;
32633;SDS011;19043;51.012;5.648;2022-09-06T03:01:33;10.43;;;9.27;;
32633;SDS011;19043;51.012;5.648;2022-09-06T03:03:59;10.88;;;9.30;;
32633;SDS011;19043;51.012;5.648;2022-09-06T03:06:24;9.95;;;8.68;;
32633;SDS011;19043;51.012;5.648;2022-09-06T03:08:50;12.85;;;10.77;;
32633;SDS011;19043;51.012;5.648;2022-09-06T03:11:16;11.05;;;9.38;;
32633;SDS011;19043;51.012;5.648;2022-09-06T03:13:41;12.50;;;9.73;;
32633;SDS011;19043;51.012;5.648;2022-09-06T03:16:07;11.65;;;9.25;;
32633;SDS011;19043;51.012;5.648;2022-09-06T03:18:32;11.85;;;9.60;;
32633;SDS011;19043;51.012;5.648;2022-09-06T03:20:58;10.30;;;9.30;;
32633;SDS011;19043;51.012;5.648;2022-09-06T03:23:24;12.32;;;10.93;;
32633;SDS011;19043;51.012;5.648;2022-09-06T03:25:51;10.90;;;9.57;;
32633;SDS011;19043;51.012;5.648;2022-09-06T03:28:17;10.15;;;8.77;;
32633;SDS011;19043;51.012;5.648;2022-09-06T03:30:46;10.25;;;9.25;;
32633;SDS011;19043;51.012;5.648;2022-09-06T03:33:13;17.50;;;9.23;;
32633;SDS011;19043;51.012;5.648;2022-09-06T03:35:39;12.80;;;9.43;;
32633;SDS011;19043;51.012;5.648;2022-09-06T03:38:05;12.98;;;9.32;;
32633;SDS011;19043;51.012;5.648;2022-09-06T03:40:31;11.05;;;8.82;;
32633;SDS011;19043;51.012;5.648;2022-09-06T03:42:56;12.77;;;10.38;;
32633;SDS011;19043;51.012;5.648;2022-09-06T03:45:21;10.68;;;9.25;;
32633;SDS011;19043;51.012;5.648;2022-09-06T03:47:47;13.18;;;8.60;;
32633;SDS011;19043;51.012;5.648;2022-09-06T03:50:12;10.45;;;9.32;;
32633;SDS011;19043;51.012;5.648;2022-09-06T03:52:37;15.98;;;10.05;;
32633;SDS011;19043;51.012;5.648;2022-09-06T03:55:04;11.98;;;10.23;;
32633;SDS011;19043;51.012;5.648;2022-09-06T03:57:31;16.42;;;9.68;;
32633;SDS011;19043;51.012;5.648;2022-09-06T03:59:56;11.10;;;9.98;;
32633;SDS011;19043;51.012;5.648;2022-09-06T04:02:21;13.25;;;9.68;;
32633;SDS011;19043;51.012;5.648;2022-09-06T04:04:47;10.57;;;9.07;;
32633;SDS011;19043;51.012;5.648;2022-09-06T04:07:12;11.65;;;9.68;;
32633;SDS011;19043;51.012;5.648;2022-09-06T04:09:38;9.93;;;8.90;;
32633;SDS011;19043;51.012;5.648;2022-09-06T04:12:03;12.60;;;10.32;;
32633;SDS011;19043;51.012;5.648;2022-09-06T04:14:29;14.77;;;9.57;;
32633;SDS011;19043;51.012;5.648;2022-09-06T04:16:54;11.32;;;9.60;;
32633;SDS011;19043;51.012;5.648;2022-09-06T04:19:19;12.75;;;11.43;;
32633;SDS011;19043;51.012;5.648;2022-09-06T04:21:45;11.55;;;10.18;;
32633;SDS011;19043;51.012;5.648;2022-09-06T04:24:10;12.80;;;10.70;;
32633;SDS011;19043;51.012;5.648;2022-09-06T04:26:35;11.88;;;9.30;;
32633;SDS011;19043;51.012;5.648;2022-09-06T04:29:01;11.02;;;9.70;;
32633;SDS011;19043;51.012;5.648;2022-09-06T04:31:26;15.35;;;10.68;;
32633;SDS011;19043;51.012;5.648;2022-09-06T04:33:52;16.50;;;11.70;;
32633;SDS011;19043;51.012;5.648;2022-09-06T04:36:17;15.88;;;10.90;;
32633;SDS011;19043;51.012;5.648;2022-09-06T04:38:43;11.93;;;10.80;;
32633;SDS011;19043;51.012;5.648;2022-09-06T04:41:13;14.82;;;11.88;;
32633;SDS011;19043;51.012;5.648;2022-09-06T04:43:39;12.88;;;11.50;;
32633;SDS011;19043;51.012;5.648;2022-09-06T04:46:05;11.48;;;10.40;;
32633;SDS011;19043;51.012;5.648;2022-09-06T04:48:35;13.63;;;11.52;;
32633;SDS011;19043;51.012;5.648;2022-09-06T04:51:00;12.68;;;10.82;;
32633;SDS011;19043;51.012;5.648;2022-09-06T04:53:25;13.93;;;12.02;;
32633;SDS011;19043;51.012;5.648;2022-09-06T04:55:51;12.50;;;11.27;;
32633;SDS011;19043;51.012;5.648;2022-09-06T04:58:16;13.02;;;11.73;;
32633;SDS011;19043;51.012;5.648;2022-09-06T05:00:42;17.17;;;11.35;;
32633;SDS011;19043;51.012;5.648;2022-09-06T05:03:08;11.40;;;10.20;;
32633;SDS011;19043;51.012;5.648;2022-09-06T05:05:34;14.15;;;10.02;;
32633;SDS011;19043;51.012;5.648;2022-09-06T05:07:59;16.08;;;11.90;;
32633;SDS011;19043;51.012;5.648;2022-09-06T05:10:24;14.05;;;10.30;;
32633;SDS011;19043;51.012;5.648;2022-09-06T05:12:51;14.48;;;10.60;;
32633;SDS011;19043;51.012;5.648;2022-09-06T05:15:17;14.38;;;10.65;;
32633;SDS011;19043;51.012;5.648;2022-09-06T05:17:43;11.75;;;10.18;;
32633;SDS011;19043;51.012;5.648;2022-09-06T05:20:09;11.52;;;10.38;;
32633;SDS011;19043;51.012;5.648;2022-09-06T05:22:35;12.38;;;9.98;;
32633;SDS011;19043;51.012;5.648;2022-09-06T05:25:00;12.85;;;10.30;;
32633;SDS011;19043;51.012;5.648;2022-09-06T05:27:26;14.35;;;10.50;;
32633;SDS011;19043;51.012;5.648;2022-09-06T05:29:51;12.43;;;10.45;;
32633;SDS011;19043;51.012;5.648;2022-09-06T05:32:17;12.55;;;11.40;;
32633;SDS011;19043;51.012;5.648;2022-09-06T05:34:42;12.48;;;10.00;;
32633;SDS011;19043;51.012;5.648;2022-09-06T05:37:07;12.82;;;10.38;;
32633;SDS011;19043;51.012;5.648;2022-09-06T05:39:33;12.00;;;10.00;;
32633;SDS011;19043;51.012;5.648;2022-09-06T05:41:58;12.05;;;10.35;;
32633;SDS011;19043;51.012;5.648;2022-09-06T05:44:24;11.15;;;8.88;;
32633;SDS011;19043;51.012;5.648;2022-09-06T05:46:50;11.77;;;10.50;;
32633;SDS011;19043;51.012;5.648;2022-09-06T05:49:15;14.80;;;9.65;;
32633;SDS011;19043;51.012;5.648;2022-09-06T05:51:40;15.82;;;10.45;;
32633;SDS011;19043;51.012;5.648;2022-09-06T05:54:06;12.00;;;9.38;;
32633;SDS011;19043;51.012;5.648;2022-09-06T05:56:32;11.52;;;9.38;;
32633;SDS011;19043;51.012;5.648;2022-09-06T05:59:00;15.63;;;9.63;;
32633;SDS011;19043;51.012;5.648;2022-09-06T06:01:26;13.63;;;9.57;;
32633;SDS011;19043;51.012;5.648;2022-09-06T06:03:57;10.27;;;9.23;;
32633;SDS011;19043;51.012;5.648;2022-09-06T06:06:27;12.02;;;8.70;;
32633;SDS011;19043;51.012;5.648;2022-09-06T06:08:54;11.98;;;10.18;;
32633;SDS011;19043;51.012;5.648;2022-09-06T06:11:20;9.50;;;8.50;;
32633;SDS011;19043;51.012;5.648;2022-09-06T06:13:46;12.07;;;7.97;;
32633;SDS011;19043;51.012;5.648;2022-09-06T06:16:12;10.75;;;8.45;;
32633;SDS011;19043;51.012;5.648;2022-09-06T06:18:39;13.98;;;9.07;;
32633;SDS011;19043;51.012;5.648;2022-09-06T06:23:34;9.20;;;8.30;;
32633;SDS011;19043;51.012;5.648;2022-09-06T06:25:59;12.88;;;9.65;;
32633;SDS011;19043;51.012;5.648;2022-09-06T06:28:24;9.18;;;8.10;;
32633;SDS011;19043;51.012;5.648;2022-09-06T06:30:50;9.02;;;6.70;;
32633;SDS011;19043;51.012;5.648;2022-09-06T06:33:15;8.73;;;6.07;;
32633;SDS011;19043;51.012;5.648;2022-09-06T06:35:40;9.93;;;7.10;;
32633;SDS011;19043;51.012;5.648;2022-09-06T06:38:07;6.97;;;5.88;;
32633;SDS011;19043;51.012;5.648;2022-09-06T06:40:32;7.95;;;6.07;;
32633;SDS011;19043;51.012;5.648;2022-09-06T06:42:58;6.50;;;5.53;;
32633;SDS011;19043;51.012;5.648;2022-09-06T06:45:24;6.07;;;5.28;;
32633;SDS011;19043;51.012;5.648;2022-09-06T06:47:50;14.73;;;5.18;;
32633;SDS011;19043;51.012;5.648;2022-09-06T06:50:15;7.05;;;4.55;;
32633;SDS011;19043;51.012;5.648;2022-09-06T06:52:41;6.93;;;4.25;;
32633;SDS011;19043;51.012;5.648;2022-09-06T06:55:06;5.20;;;3.97;;
32633;SDS011;19043;51.012;5.648;2022-09-06T06:57:32;13.95;;;4.10;;
32633;SDS011;19043;51.012;5.648;2022-09-06T06:59:57;7.72;;;3.95;;
32633;SDS011;19043;51.012;5.648;2022-09-06T07:02:23;6.47;;;3.83;;
32633;SDS011;19043;51.012;5.648;2022-09-06T07:04:48;4.22;;;2.85;;
32633;SDS011;19043;51.012;5.648;2022-09-06T07:07:13;4.35;;;3.15;;
32633;SDS011;19043;51.012;5.648;2022-09-06T07:09:40;6.55;;;3.67;;
32633;SDS011;19043;51.012;5.648;2022-09-06T07:12:05;10.82;;;3.45;;
32633;SDS011;19043;51.012;5.648;2022-09-06T07:14:31;4.25;;;3.20;;
32633;SDS011;19043;51.012;5.648;2022-09-06T07:16:56;4.47;;;3.10;;
32633;SDS011;19043;51.012;5.648;2022-09-06T07:19:23;5.22;;;3.40;;
32633;SDS011;19043;51.012;5.648;2022-09-06T07:21:48;5.93;;;3.38;;
32633;SDS011;19043;51.012;5.648;2022-09-06T07:24:14;15.15;;;3.38;;
32633;SDS011;19043;51.012;5.648;2022-09-06T07:26:40;6.93;;;3.05;;
32633;SDS011;19043;51.012;5.648;2022-09-06T07:29:05;6.40;;;3.88;;
32633;SDS011;19043;51.012;5.648;2022-09-06T07:31:31;7.22;;;3.10;;
32633;SDS011;19043;51.012;5.648;2022-09-06T07:33:57;5.03;;;3.08;;
32633;SDS011;19043;51.012;5.648;2022-09-06T07:36:22;4.95;;;3.25;;
32633;SDS011;19043;51.012;5.648;2022-09-06T07:38:48;8.52;;;3.45;;
32633;SDS011;19043;51.012;5.648;2022-09-06T07:41:14;6.05;;;3.13;;
32633;SDS011;19043;51.012;5.648;2022-09-06T07:43:41;5.20;;;2.67;;
32633;SDS011;19043;51.012;5.648;2022-09-06T07:46:08;5.45;;;2.83;;
32633;SDS011;19043;51.012;5.648;2022-09-06T07:48:38;6.45;;;2.85;;
32633;SDS011;19043;51.012;5.648;2022-09-06T07:51:14;6.10;;;2.97;;
32633;SDS011;19043;51.012;5.648;2022-09-06T07:53:41;4.57;;;2.75;;
32633;SDS011;19043;51.012;5.648;2022-09-06T07:56:09;5.90;;;2.88;;
32633;SDS011;19043;51.012;5.648;2022-09-06T07:58:35;5.85;;;2.60;;
32633;SDS011;19043;51.012;5.648;2022-09-06T08:03:58;3.88;;;2.10;;
32633;SDS011;19043;51.012;5.648;2022-09-06T08:06:28;6.78;;;2.30;;
32633;SDS011;19043;51.012;5.648;2022-09-06T08:08:56;4.95;;;2.35;;
32633;SDS011;19043;51.012;5.648;2022-09-06T08:11:22;5.28;;;2.75;;
32633;SDS011;19043;51.012;5.648;2022-09-06T08:13:49;6.57;;;1.95;;
32633;SDS011;19043;51.012;5.648;2022-09-06T08:16:16;3.75;;;2.28;;
32633;SDS011;19043;51.012;5.648;2022-09-06T08:18:42;3.45;;;2.15;;
32633;SDS011;19043;51.012;5.648;2022-09-06T08:21:12;4.35;;;2.25;;
32633;SDS011;19043;51.012;5.648;2022-09-06T08:23:39;3.97;;;2.15;;
32633;SDS011;19043;51.012;5.648;2022-09-06T08:26:08;4.30;;;1.73;;
32633;SDS011;19043;51.012;5.648;2022-09-06T08:28:33;3.15;;;1.80;;
32633;SDS011;19043;51.012;5.648;2022-09-06T08:31:11;4.35;;;1.88;;
32633;SDS011;19043;51.012;5.648;2022-09-06T08:33:39;5.45;;;1.98;;
32633;SDS011;19043;51.012;5.648;2022-09-06T08:36:05;3.30;;;1.80;;
32633;SDS011;19043;51.012;5.648;2022-09-06T08:38:31;4.40;;;1.83;;
32633;SDS011;19043;51.012;5.648;2022-09-06T08:43:48;3.40;;;1.60;;
32633;SDS011;19043;51.012;5.648;2022-09-06T08:46:18;6.15;;;2.13;;
32633;SDS011;19043;51.012;5.648;2022-09-06T08:48:45;3.92;;;1.70;;
32633;SDS011;19043;51.012;5.648;2022-09-06T08:53:51;6.05;;;2.72;;
32633;SDS011;19043;51.012;5.648;2022-09-06T08:56:24;4.05;;;1.92;;
32633;SDS011;19043;51.012;5.648;2022-09-06T09:01:47;7.90;;;2.30;;
32633;SDS011;19043;51.012;5.648;2022-09-06T09:04:13;3.50;;;1.80;;
32633;SDS011;19043;51.012;5.648;2022-09-06T09:06:42;3.25;;;1.85;;
32633;SDS011;19043;51.012;5.648;2022-09-06T09:09:11;7.38;;;2.38;;
32633;SDS011;19043;51.012;5.648;2022-09-06T09:11:38;3.20;;;2.00;;
32633;SDS011;19043;51.012;5.648;2022-09-06T09:16:44;5.55;;;1.95;;
32633;SDS011;19043;51.012;5.648;2022-09-06T09:19:09;5.47;;;2.10;;
32633;SDS011;19043;51.012;5.648;2022-09-06T09:21:36;5.60;;;1.92;;
32633;SDS011;19043;51.012;5.648;2022-09-06T09:24:12;4.15;;;1.90;;
32633;SDS011;19043;51.012;5.648;2022-09-06T09:29:11;3.65;;;1.85;;
32633;SDS011;19043;51.012;5.648;2022-09-06T09:31:39;10.68;;;2.63;;
32633;SDS011;19043;51.012;5.648;2022-09-06T09:34:35;8.88;;;1.65;;
32633;SDS011;19043;51.012;5.648;2022-09-06T09:37:12;7.45;;;1.67;;
32633;SDS011;19043;51.012;5.648;2022-09-06T09:39:41;11.45;;;2.65;;
32633;SDS011;19043;51.012;5.648;2022-09-06T09:42:07;4.32;;;2.17;;
32633;SDS011;19043;51.012;5.648;2022-09-06T09:44:33;8.20;;;2.40;;
32633;SDS011;19043;51.012;5.648;2022-09-06T09:47:00;3.92;;;1.98;;
32633;SDS011;19043;51.012;5.648;2022-09-06T09:49:46;4.72;;;2.30;;
32633;SDS011;19043;51.012;5.648;2022-09-06T09:52:12;5.88;;;2.50;;
32633;SDS011;19043;51.012;5.648;2022-09-06T09:54:43;5.07;;;2.50;;
32633;SDS011;19043;51.012;5.648;2022-09-06T09:57:10;4.18;;;2.35;;
32633;SDS011;19043;51.012;5.648;2022-09-06T09:59:46;5.63;;;2.42;;
32633;SDS011;19043;51.012;5.648;2022-09-06T10:02:16;4.68;;;2.30;;
32633;SDS011;19043;51.012;5.648;2022-09-06T10:04:48;6.68;;;2.15;;
32633;SDS011;19043;51.012;5.648;2022-09-06T10:07:19;3.35;;;2.20;;
32633;SDS011;19043;51.012;5.648;2022-09-06T10:09:47;4.55;;;1.75;;
32633;SDS011;19043;51.012;5.648;2022-09-06T10:12:15;6.40;;;2.33;;
32633;SDS011;19043;51.012;5.648;2022-09-06T10:14:54;6.20;;;2.20;;
32633;SDS011;19043;51.012;5.648;2022-09-06T10:17:21;6.00;;;2.15;;
32633;SDS011;19043;51.012;5.648;2022-09-06T10:19:51;4.60;;;2.22;;
32633;SDS011;19043;51.012;5.648;2022-09-06T10:30:02;5.07;;;2.60;;
32633;SDS011;19043;51.012;5.648;2022-09-06T10:40:11;9.55;;;2.65;;
32633;SDS011;19043;51.012;5.648;2022-09-06T10:42:50;5.53;;;2.20;;
32633;SDS011;19043;51.012;5.648;2022-09-06T10:47:57;4.22;;;2.33;;
32633;SDS011;19043;51.012;5.648;2022-09-06T10:55:45;4.80;;;2.00;;
32633;SDS011;19043;51.012;5.648;2022-09-06T10:58:26;5.03;;;2.70;;
32633;SDS011;19043;51.012;5.648;2022-09-06T11:00:53;4.68;;;2.40;;
32633;SDS011;19043;51.012;5.648;2022-09-06T11:03:26;4.47;;;2.25;;
32633;SDS011;19043;51.012;5.648;2022-09-06T11:05:57;4.15;;;1.90;;
32633;SDS011;19043;51.012;5.648;2022-09-06T11:11:20;7.75;;;2.08;;
32633;SDS011;19043;51.012;5.648;2022-09-06T11:13:52;4.05;;;1.45;;
32633;SDS011;19043;51.012;5.648;2022-09-06T11:16:20;2.75;;;1.25;;
32633;SDS011;19043;51.012;5.648;2022-09-06T11:18:51;3.28;;;1.42;;
32633;SDS011;19043;51.012;5.648;2022-09-06T11:24:13;5.07;;;1.80;;
32633;SDS011;19043;51.012;5.648;2022-09-06T11:26:44;4.00;;;1.55;;
32633;SDS011;19043;51.012;5.648;2022-09-06T11:29:17;6.97;;;1.75;;
32633;SDS011;19043;51.012;5.648;2022-09-06T11:34:19;3.72;;;1.67;;
32633;SDS011;19043;51.012;5.648;2022-09-06T11:36:49;4.90;;;1.50;;
32633;SDS011;19043;51.012;5.648;2022-09-06T11:39:38;3.45;;;1.30;;
32633;SDS011;19043;51.012;5.648;2022-09-06T11:42:06;3.25;;;1.30;;
32633;SDS011;19043;51.012;5.648;2022-09-06T11:44:52;3.85;;;1.42;;
32633;SDS011;19043;51.012;5.648;2022-09-06T11:55:20;3.08;;;1.42;;
32633;SDS011;19043;51.012;5.648;2022-09-06T11:57:52;4.82;;;1.17;;
32633;SDS011;19043;51.012;5.648;2022-09-06T12:00:20;3.90;;;1.30;;
32633;SDS011;19043;51.012;5.648;2022-09-06T12:02:50;2.28;;;0.95;;
32633;SDS011;19043;51.012;5.648;2022-09-06T12:15:58;2.45;;;0.90;;
32633;SDS011;19043;51.012;5.648;2022-09-06T12:24:01;3.60;;;1.73;;
32633;SDS011;19043;51.012;5.648;2022-09-06T12:26:43;3.65;;;1.33;;
32633;SDS011;19043;51.012;5.648;2022-09-06T12:29:15;5.22;;;1.40;;
32633;SDS011;19043;51.012;5.648;2022-09-06T12:31:41;3.65;;;1.42;;
32633;SDS011;19043;51.012;5.648;2022-09-06T12:34:10;2.70;;;1.30;;
32633;SDS011;19043;51.012;5.648;2022-09-06T12:36:45;4.00;;;1.40;;
32633;SDS011;19043;51.012;5.648;2022-09-06T12:39:12;3.58;;;1.50;;
32633;SDS011;19043;51.012;5.648;2022-09-06T12:41:39;5.25;;;1.50;;
32633;SDS011;19043;51.012;5.648;2022-09-06T12:44:09;9.20;;;1.50;;
32633;SDS011;19043;51.012;5.648;2022-09-06T12:46:35;7.20;;;1.60;;
32633;SDS011;19043;51.012;5.648;2022-09-06T12:49:07;2.63;;;1.35;;
32633;SDS011;19043;51.012;5.648;2022-09-06T12:51:34;3.40;;;1.38;;
32633;SDS011;19043;51.012;5.648;2022-09-06T12:54:04;4.95;;;1.77;;
32633;SDS011;19043;51.012;5.648;2022-09-06T12:56:42;3.20;;;1.48;;
32633;SDS011;19043;51.012;5.648;2022-09-06T13:01:38;3.67;;;1.30;;
32633;SDS011;19043;51.012;5.648;2022-09-06T13:04:07;2.45;;;1.35;;
32633;SDS011;19043;51.012;5.648;2022-09-06T13:06:38;2.78;;;1.33;;
32633;SDS011;19043;51.012;5.648;2022-09-06T13:09:07;4.68;;;1.60;;
32633;SDS011;19043;51.012;5.648;2022-09-06T13:11:37;3.88;;;1.60;;
32633;SDS011;19043;51.012;5.648;2022-09-06T13:14:16;2.80;;;1.35;;
32633;SDS011;19043;51.012;5.648;2022-09-06T13:16:45;10.18;;;1.70;;
32633;SDS011;19043;51.012;5.648;2022-09-06T13:19:12;4.55;;;1.55;;
32633;SDS011;19043;51.012;5.648;2022-09-06T13:21:59;3.08;;;1.20;;
32633;SDS011;19043;51.012;5.648;2022-09-06T13:24:46;4.28;;;1.77;;
32633;SDS011;19043;51.012;5.648;2022-09-06T13:27:33;3.72;;;1.40;;
32633;SDS011;19043;51.012;5.648;2022-09-06T13:30:03;4.75;;;1.65;;
32633;SDS011;19043;51.012;5.648;2022-09-06T13:32:30;1.95;;;1.05;;
32633;SDS011;19043;51.012;5.648;2022-09-06T13:34:56;5.05;;;0.95;;
32633;SDS011;19043;51.012;5.648;2022-09-06T13:37:24;4.63;;;1.40;;
32633;SDS011;19043;51.012;5.648;2022-09-06T13:39:50;4.75;;;1.38;;
32633;SDS011;19043;51.012;5.648;2022-09-06T13:42:32;3.72;;;1.40;;
32633;SDS011;19043;51.012;5.648;2022-09-06T13:48:01;3.53;;;1.65;;
32633;SDS011;19043;51.012;5.648;2022-09-06T13:50:26;6.30;;;1.70;;
32633;SDS011;19043;51.012;5.648;2022-09-06T13:52:52;2.75;;;1.20;;
32633;SDS011;19043;51.012;5.648;2022-09-06T13:55:18;2.35;;;1.15;;
32633;SDS011;19043;51.012;5.648;2022-09-06T13:57:45;2.45;;;1.10;;
32633;SDS011;19043;51.012;5.648;2022-09-06T14:00:11;5.82;;;1.45;;
32633;SDS011;19043;51.012;5.648;2022-09-06T14:02:40;3.92;;;1.20;;
32633;SDS011;19043;51.012;5.648;2022-09-06T14:05:06;3.30;;;1.40;;
32633;SDS011;19043;51.012;5.648;2022-09-06T14:07:31;4.13;;;1.30;;
32633;SDS011;19043;51.012;5.648;2022-09-06T14:09:57;3.38;;;1.50;;
32633;SDS011;19043;51.012;5.648;2022-09-06T14:12:23;3.47;;;1.83;;
32633;SDS011;19043;51.012;5.648;2022-09-06T14:14:49;3.28;;;1.35;;
32633;SDS011;19043;51.012;5.648;2022-09-06T14:17:14;7.07;;;5.72;;
32633;SDS011;19043;51.012;5.648;2022-09-06T14:19:40;7.28;;;1.58;;
32633;SDS011;19043;51.012;5.648;2022-09-06T14:22:05;3.20;;;1.33;;
32633;SDS011;19043;51.012;5.648;2022-09-06T14:24:31;2.78;;;1.40;;
32633;SDS011;19043;51.012;5.648;2022-09-06T14:26:56;9.07;;;1.42;;
32633;SDS011;19043;51.012;5.648;2022-09-06T14:29:22;3.67;;;1.50;;
32633;SDS011;19043;51.012;5.648;2022-09-06T14:31:47;2.50;;;1.40;;
32633;SDS011;19043;51.012;5.648;2022-09-06T14:34:13;2.45;;;1.27;;
32633;SDS011;19043;51.012;5.648;2022-09-06T14:36:39;14.23;;;1.60;;
32633;SDS011;19043;51.012;5.648;2022-09-06T14:39:04;3.08;;;1.20;;
32633;SDS011;19043;51.012;5.648;2022-09-06T14:41:30;2.92;;;1.00;;
32633;SDS011;19043;51.012;5.648;2022-09-06T14:43:56;4.28;;;1.67;;
32633;SDS011;19043;51.012;5.648;2022-09-06T14:46:22;5.18;;;1.48;;
32633;SDS011;19043;51.012;5.648;2022-09-06T14:48:55;3.40;;;1.38;;
32633;SDS011;19043;51.012;5.648;2022-09-06T14:51:29;4.45;;;1.63;;
32633;SDS011;19043;51.012;5.648;2022-09-06T14:53:57;3.95;;;1.20;;
32633;SDS011;19043;51.012;5.648;2022-09-06T14:56:24;6.22;;;1.48;;
32633;SDS011;19043;51.012;5.648;2022-09-06T14:58:51;4.68;;;1.20;;
32633;SDS011;19043;51.012;5.648;2022-09-06T15:01:19;3.72;;;1.30;;
32633;SDS011;19043;51.012;5.648;2022-09-06T15:03:47;5.28;;;1.50;;
32633;SDS011;19043;51.012;5.648;2022-09-06T15:06:16;3.50;;;1.38;;
32633;SDS011;19043;51.012;5.648;2022-09-06T15:08:42;5.55;;;1.40;;
32633;SDS011;19043;51.012;5.648;2022-09-06T15:11:08;3.13;;;1.38;;
32633;SDS011;19043;51.012;5.648;2022-09-06T15:13:35;4.68;;;1.27;;
32633;SDS011;19043;51.012;5.648;2022-09-06T15:16:01;2.05;;;1.00;;
32633;SDS011;19043;51.012;5.648;2022-09-06T15:18:28;2.58;;;1.20;;
32633;SDS011;19043;51.012;5.648;2022-09-06T15:20:53;3.08;;;1.48;;
32633;SDS011;19043;51.012;5.648;2022-09-06T15:23:19;3.22;;;1.10;;
32633;SDS011;19043;51.012;5.648;2022-09-06T15:25:45;5.07;;;1.35;;
32633;SDS011;19043;51.012;5.648;2022-09-06T15:28:14;2.38;;;1.20;;
32633;SDS011;19043;51.012;5.648;2022-09-06T15:30:40;6.00;;;1.25;;
32633;SDS011;19043;51.012;5.648;2022-09-06T15:33:05;4.20;;;1.45;;
32633;SDS011;19043;51.012;5.648;2022-09-06T15:35:31;2.92;;;1.33;;
32633;SDS011;19043;51.012;5.648;2022-09-06T15:37:57;3.25;;;1.15;;
32633;SDS011;19043;51.012;5.648;2022-09-06T15:40:22;4.47;;;1.45;;
32633;SDS011;19043;51.012;5.648;2022-09-06T15:42:50;3.28;;;1.60;;
32633;SDS011;19043;51.012;5.648;2022-09-06T15:45:16;10.75;;;1.80;;
32633;SDS011;19043;51.012;5.648;2022-09-06T15:47:41;3.13;;;1.40;;
32633;SDS011;19043;51.012;5.648;2022-09-06T15:50:07;2.95;;;1.25;;
32633;SDS011;19043;51.012;5.648;2022-09-06T15:52:34;3.10;;;1.23;;
32633;SDS011;19043;51.012;5.648;2022-09-06T15:54:59;3.08;;;1.40;;
32633;SDS011;19043;51.012;5.648;2022-09-06T15:57:43;4.88;;;1.52;;
32633;SDS011;19043;51.012;5.648;2022-09-06T16:00:09;4.90;;;1.48;;
32633;SDS011;19043;51.012;5.648;2022-09-06T16:02:35;5.95;;;1.55;;
32633;SDS011;19043;51.012;5.648;2022-09-06T16:05:01;4.10;;;1.52;;
32633;SDS011;19043;51.012;5.648;2022-09-06T16:07:26;2.92;;;1.30;;
32633;SDS011;19043;51.012;5.648;2022-09-06T16:09:51;2.38;;;1.30;;
32633;SDS011;19043;51.012;5.648;2022-09-06T16:12:17;4.93;;;1.45;;
32633;SDS011;19043;51.012;5.648;2022-09-06T16:14:42;3.92;;;1.27;;
32633;SDS011;19043;51.012;5.648;2022-09-06T16:17:07;3.25;;;1.25;;
32633;SDS011;19043;51.012;5.648;2022-09-06T16:19:33;9.75;;;1.50;;
32633;SDS011;19043;51.012;5.648;2022-09-06T16:21:58;3.10;;;1.48;;
32633;SDS011;19043;51.012;5.648;2022-09-06T16:24:24;3.28;;;1.20;;
32633;SDS011;19043;51.012;5.648;2022-09-06T16:26:50;4.18;;;1.40;;
32633;SDS011;19043;51.012;5.648;2022-09-06T16:29:16;2.88;;;1.33;;
32633;SDS011;19043;51.012;5.648;2022-09-06T16:31:43;2.83;;;1.27;;
32633;SDS011;19043;51.012;5.648;2022-09-06T16:34:09;4.90;;;1.50;;
32633;SDS011;19043;51.012;5.648;2022-09-06T16:36:35;2.78;;;1.50;;
32633;SDS011;19043;51.012;5.648;2022-09-06T16:39:01;3.00;;;1.40;;
32633;SDS011;19043;51.012;5.648;2022-09-06T16:41:29;3.83;;;1.20;;
32633;SDS011;19043;51.012;5.648;2022-09-06T16:44:09;4.03;;;1.20;;
32633;SDS011;19043;51.012;5.648;2022-09-06T16:46:40;3.67;;;1.55;;